Startpagina
METAR-TAF:

METAR-TAF

Vliegvelden :

Luchthaven Ankara Esenboga

Ankara Esenboğa, Turkije

breedte: 40-07N, lengte: 032-59E, hoogte: 953 m

Actueel weer

Dit bericht is 25 minuten geleden gemaakt, om 05:20 UTC
Wind 10 kt uit het noordnoordoosten
Temperatuur 12°C
Vochtigheid 67%
Druk 1022 hPa
Zicht 10 km of meer
geen wolken onder 1500 m en geen cumulonimbus

METAR: LTAC 190520Z 02010KT CAVOK 12/06 Q1022 NOSIG RMK RWY21L 04009KT RWY03L 01008KT RWY21R 03008KT

Tijdstip: 08:45 (05:45 UTC)

Verwachting

Dit bericht is 1 uur en het 5 minuten geleden gemaakt, om 04:40 UTC
Verwachting geldig van 19 om 06 UTC tot 20 om 06 UTC
Wind 8 kt uit het oostnoordoosten
Zicht 10 km of meer
geen wolken onder 1500 m en geen cumulonimbus
Wijzigt naar
van 19 om 06 UTC tot 19 om 08 UTC
Verspreide wolken op 4000 ft
Wijzigt naar
van 19 om 14 UTC tot 19 om 16 UTC
Zicht 10 km of meer
geen wolken onder 1500 m en geen cumulonimbus

TAF: LTAC 190440Z 1906/2006 06008KT CAVOK BECMG 1906/1908 SCT040 BECMG 1914/1916 CAVOK

Waarnemingen en weersverwachtingen van meer dan 4000 vliegvelden (METAR en TAF).

De beschikbare stations zijn de gele en rode punten op de kaart.

Ga met uw muis naar het station om de naam te zien.

Klik dan om waarnemingen en weersverwachtingen te zien.

kaart wijzigen: klik op de groene knoppen met een zwart kruis om in te zoomen, op de groene knop met een streepje om uit te zoomen of op de groene pijlen voor aangrenzende kaarten.


METAR-TAF: